sensor_id;sensor_type;location;lat;lon;timestamp;pressure;altitude;pressure_sealevel;temperature;humidity
9899;BME280;4988;49.238;6.698;2023-03-16T00:01:56;99499.91;;;1.53;99.42
9899;BME280;4988;49.238;6.698;2023-03-16T00:04:21;99497.28;;;1.50;99.71
9899;BME280;4988;49.238;6.698;2023-03-16T00:06:46;99500.75;;;1.54;100.00
9899;BME280;4988;49.238;6.698;2023-03-16T00:09:12;99503.44;;;1.49;100.00
9899;BME280;4988;49.238;6.698;2023-03-16T00:11:37;99505.25;;;1.21;99.49
9899;BME280;4988;49.238;6.698;2023-03-16T00:14:02;99499.16;;;1.00;100.00
9899;BME280;4988;49.238;6.698;2023-03-16T00:16:28;99487.78;;;1.10;100.00
9899;BME280;4988;49.238;6.698;2023-03-16T00:18:53;99491.28;;;1.06;99.60
9899;BME280;4988;49.238;6.698;2023-03-16T00:21:19;99494.78;;;1.07;99.76
9899;BME280;4988;49.238;6.698;2023-03-16T00:23:45;99501.75;;;1.14;100.00
9899;BME280;4988;49.238;6.698;2023-03-16T00:26:10;99487.75;;;1.18;100.00
9899;BME280;4988;49.238;6.698;2023-03-16T00:28:37;99493.00;;;1.21;100.00
9899;BME280;4988;49.238;6.698;2023-03-16T00:31:07;99502.66;;;1.04;100.00
9899;BME280;4988;49.238;6.698;2023-03-16T00:33:36;99500.03;;;0.84;100.00
9899;BME280;4988;49.238;6.698;2023-03-16T00:36:03;99506.16;;;0.86;100.00
9899;BME280;4988;49.238;6.698;2023-03-16T00:38:33;99505.31;;;0.91;100.00
9899;BME280;4988;49.238;6.698;2023-03-16T00:41:00;99504.44;;;0.99;100.00
9899;BME280;4988;49.238;6.698;2023-03-16T00:43:29;99502.69;;;0.91;100.00
9899;BME280;4988;49.238;6.698;2023-03-16T00:45:59;99500.91;;;0.92;100.00
9899;BME280;4988;49.238;6.698;2023-03-16T00:48:31;99490.44;;;0.93;100.00
9899;BME280;4988;49.238;6.698;2023-03-16T00:50:59;99489.53;;;1.01;100.00
9899;BME280;4988;49.238;6.698;2023-03-16T00:53:24;99481.69;;;1.01;100.00
9899;BME280;4988;49.238;6.698;2023-03-16T00:55:50;99489.56;;;0.87;100.00
9899;BME280;4988;49.238;6.698;2023-03-16T00:58:17;99478.25;;;0.52;100.00
9899;BME280;4988;49.238;6.698;2023-03-16T01:00:44;99485.22;;;0.41;100.00
9899;BME280;4988;49.238;6.698;2023-03-16T01:03:09;99493.09;;;0.47;100.00
9899;BME280;4988;49.238;6.698;2023-03-16T01:05:38;99489.56;;;0.40;100.00
9899;BME280;4988;49.238;6.698;2023-03-16T01:08:04;99486.09;;;0.49;100.00
9899;BME280;4988;49.238;6.698;2023-03-16T01:10:29;99483.47;;;0.55;100.00
9899;BME280;4988;49.238;6.698;2023-03-16T01:12:55;99479.97;;;0.56;100.00
9899;BME280;4988;49.238;6.698;2023-03-16T01:15:21;99479.13;;;0.62;100.00
9899;BME280;4988;49.238;6.698;2023-03-16T01:17:46;99472.97;;;0.68;100.00
9899;BME280;4988;49.238;6.698;2023-03-16T01:20:11;99461.63;;;0.75;100.00
9899;BME280;4988;49.238;6.698;2023-03-16T01:22:38;99470.38;;;0.82;100.00
9899;BME280;4988;49.238;6.698;2023-03-16T01:25:04;99473.84;;;0.80;100.00
9899;BME280;4988;49.238;6.698;2023-03-16T01:27:29;99472.97;;;0.74;100.00
9899;BME280;4988;49.238;6.698;2023-03-16T01:29:55;99468.63;;;0.76;100.00
9899;BME280;4988;49.238;6.698;2023-03-16T01:32:20;99466.84;;;0.90;100.00
9899;BME280;4988;49.238;6.698;2023-03-16T01:34:45;99458.13;;;0.82;100.00
9899;BME280;4988;49.238;6.698;2023-03-16T01:37:10;99461.63;;;0.81;99.97
9899;BME280;4988;49.238;6.698;2023-03-16T01:39:36;99455.53;;;0.79;100.00
9899;BME280;4988;49.238;6.698;2023-03-16T01:42:01;99454.63;;;0.72;100.00
9899;BME280;4988;49.238;6.698;2023-03-16T01:44:27;99456.41;;;0.72;100.00
9899;BME280;4988;49.238;6.698;2023-03-16T01:46:55;99456.38;;;0.70;100.00
9899;BME280;4988;49.238;6.698;2023-03-16T01:49:33;99453.75;;;0.75;100.00
9899;BME280;4988;49.238;6.698;2023-03-16T01:52:07;99453.78;;;0.73;100.00
9899;BME280;4988;49.238;6.698;2023-03-16T01:57:06;99445.03;;;0.76;100.00
9899;BME280;4988;49.238;6.698;2023-03-16T01:59:40;99448.53;;;0.75;100.00
9899;BME280;4988;49.238;6.698;2023-03-16T02:02:08;99451.16;;;0.73;100.00
9899;BME280;4988;49.238;6.698;2023-03-16T02:04:47;99448.53;;;0.78;100.00
9899;BME280;4988;49.238;6.698;2023-03-16T02:07:15;99431.06;;;0.82;100.00
9899;BME280;4988;49.238;6.698;2023-03-16T02:09:44;99431.06;;;0.83;100.00
9899;BME280;4988;49.238;6.698;2023-03-16T02:12:12;99428.41;;;0.85;100.00
9899;BME280;4988;49.238;6.698;2023-03-16T02:14:46;99431.91;;;0.91;100.00
9899;BME280;4988;49.238;6.698;2023-03-16T02:17:18;99428.41;;;0.99;100.00
9899;BME280;4988;49.238;6.698;2023-03-16T02:22:43;99420.53;;;1.05;100.00
9899;BME280;4988;49.238;6.698;2023-03-16T02:25:12;99410.06;;;0.95;100.00
9899;BME280;4988;49.238;6.698;2023-03-16T02:27:52;99417.91;;;0.95;100.00
9899;BME280;4988;49.238;6.698;2023-03-16T02:30:21;99417.06;;;0.89;100.00
9899;BME280;4988;49.238;6.698;2023-03-16T02:32:48;99412.72;;;0.75;100.00
9899;BME280;4988;49.238;6.698;2023-03-16T02:35:16;99411.88;;;0.59;100.00
9899;BME280;4988;49.238;6.698;2023-03-16T02:37:41;99417.13;;;0.53;100.00
9899;BME280;4988;49.238;6.698;2023-03-16T02:43:08;99404.91;;;0.52;100.00
9899;BME280;4988;49.238;6.698;2023-03-16T02:45:53;99397.91;;;0.45;100.00
9899;BME280;4988;49.238;6.698;2023-03-16T02:48:22;99397.06;;;0.38;100.00
9899;BME280;4988;49.238;6.698;2023-03-16T02:50:52;99396.19;;;0.25;100.00
9899;BME280;4988;49.238;6.698;2023-03-16T02:53:17;99391.81;;;0.26;100.00
9899;BME280;4988;49.238;6.698;2023-03-16T02:55:43;99390.06;;;0.32;100.00
9899;BME280;4988;49.238;6.698;2023-03-16T02:58:10;99390.06;;;0.43;100.00
9899;BME280;4988;49.238;6.698;2023-03-16T03:00:35;99387.41;;;0.59;100.00
9899;BME280;4988;49.238;6.698;2023-03-16T03:03:01;99372.56;;;0.66;100.00
9899;BME280;4988;49.238;6.698;2023-03-16T03:05:26;99376.06;;;0.71;100.00
9899;BME280;4988;49.238;6.698;2023-03-16T03:07:51;99378.66;;;0.83;100.00
9899;BME280;4988;49.238;6.698;2023-03-16T03:10:17;99370.72;;;0.97;100.00
9899;BME280;4988;49.238;6.698;2023-03-16T03:12:43;99375.09;;;1.03;100.00
9899;BME280;4988;49.238;6.698;2023-03-16T03:15:13;99368.09;;;1.02;100.00
9899;BME280;4988;49.238;6.698;2023-03-16T03:17:38;99370.69;;;1.12;100.00
9899;BME280;4988;49.238;6.698;2023-03-16T03:20:04;99362.84;;;1.11;99.62
9899;BME280;4988;49.238;6.698;2023-03-16T03:22:37;99355.81;;;1.08;100.00
9899;BME280;4988;49.238;6.698;2023-03-16T03:25:03;99355.84;;;1.07;100.00
9899;BME280;4988;49.238;6.698;2023-03-16T03:27:28;99347.09;;;1.12;100.00
9899;BME280;4988;49.238;6.698;2023-03-16T03:29:54;99347.09;;;1.12;100.00
9899;BME280;4988;49.238;6.698;2023-03-16T03:32:19;99340.97;;;1.10;100.00
9899;BME280;4988;49.238;6.698;2023-03-16T03:34:45;99340.97;;;1.12;100.00
9899;BME280;4988;49.238;6.698;2023-03-16T03:37:11;99341.88;;;1.11;100.00
9899;BME280;4988;49.238;6.698;2023-03-16T03:39:36;99342.72;;;1.15;100.00
9899;BME280;4988;49.238;6.698;2023-03-16T03:42:04;99333.09;;;1.15;100.00
9899;BME280;4988;49.238;6.698;2023-03-16T03:44:30;99340.91;;;1.27;100.00
9899;BME280;4988;49.238;6.698;2023-03-16T03:46:58;99333.00;;;1.34;99.81
9899;BME280;4988;49.238;6.698;2023-03-16T03:49:24;99339.16;;;1.30;100.00
9899;BME280;4988;49.238;6.698;2023-03-16T03:51:49;99337.38;;;1.30;100.00
9899;BME280;4988;49.238;6.698;2023-03-16T03:54:15;99329.53;;;1.25;100.00
9899;BME280;4988;49.238;6.698;2023-03-16T03:56:41;99333.94;;;1.23;100.00
9899;BME280;4988;49.238;6.698;2023-03-16T03:59:06;99327.78;;;1.24;100.00
9899;BME280;4988;49.238;6.698;2023-03-16T04:01:31;99331.31;;;1.23;100.00
9899;BME280;4988;49.238;6.698;2023-03-16T04:03:57;99331.28;;;1.26;100.00
9899;BME280;4988;49.238;6.698;2023-03-16T04:06:22;99326.94;;;1.27;100.00
9899;BME280;4988;49.238;6.698;2023-03-16T04:08:47;99331.28;;;1.30;100.00
9899;BME280;4988;49.238;6.698;2023-03-16T04:11:13;99329.50;;;1.35;100.00
9899;BME280;4988;49.238;6.698;2023-03-16T04:13:39;99333.88;;;1.36;100.00
9899;BME280;4988;49.238;6.698;2023-03-16T04:16:04;99329.47;;;1.38;100.00
9899;BME280;4988;49.238;6.698;2023-03-16T04:18:30;99328.59;;;1.39;100.00
9899;BME280;4988;49.238;6.698;2023-03-16T04:21:06;99331.22;;;1.42;100.00
9899;BME280;4988;49.238;6.698;2023-03-16T04:23:32;99322.47;;;1.40;100.00
9899;BME280;4988;49.238;6.698;2023-03-16T04:25:58;99330.38;;;1.34;100.00
9899;BME280;4988;49.238;6.698;2023-03-16T04:28:24;99327.75;;;1.31;100.00
9899;BME280;4988;49.238;6.698;2023-03-16T04:30:50;99320.78;;;1.26;100.00
9899;BME280;4988;49.238;6.698;2023-03-16T04:33:19;99317.28;;;1.27;100.00
9899;BME280;4988;49.238;6.698;2023-03-16T04:35:46;99319.91;;;1.29;100.00
9899;BME280;4988;49.238;6.698;2023-03-16T04:38:12;99311.13;;;1.35;100.00
9899;BME280;4988;49.238;6.698;2023-03-16T04:40:37;99309.38;;;1.35;100.00
9899;BME280;4988;49.238;6.698;2023-03-16T04:43:02;99305.91;;;1.33;100.00
9899;BME280;4988;49.238;6.698;2023-03-16T04:45:28;99315.63;;;1.12;100.00
9899;BME280;4988;49.238;6.698;2023-03-16T04:47:53;99307.84;;;0.99;100.00
9899;BME280;4988;49.238;6.698;2023-03-16T04:50:18;99319.22;;;0.91;100.00
9899;BME280;4988;49.238;6.698;2023-03-16T04:52:44;99319.25;;;0.82;100.00
9899;BME280;4988;49.238;6.698;2023-03-16T04:55:09;99307.03;;;0.75;100.00
9899;BME280;4988;49.238;6.698;2023-03-16T04:57:34;99314.00;;;0.82;100.00
9899;BME280;4988;49.238;6.698;2023-03-16T05:00:00;99313.09;;;0.95;100.00
9899;BME280;4988;49.238;6.698;2023-03-16T05:02:26;99313.97;;;0.93;100.00
9899;BME280;4988;49.238;6.698;2023-03-16T05:04:51;99318.31;;;0.95;100.00
9899;BME280;4988;49.238;6.698;2023-03-16T05:07:17;99307.78;;;1.03;100.00
9899;BME280;4988;49.238;6.698;2023-03-16T05:09:43;99318.28;;;1.03;100.00
9899;BME280;4988;49.238;6.698;2023-03-16T05:12:09;99313.91;;;1.07;100.00
9899;BME280;4988;49.238;6.698;2023-03-16T05:14:34;99310.38;;;1.14;100.00
9899;BME280;4988;49.238;6.698;2023-03-16T05:17:01;99306.84;;;1.21;100.00
9899;BME280;4988;49.238;6.698;2023-03-16T05:19:28;99305.91;;;1.30;100.00
9899;BME280;4988;49.238;6.698;2023-03-16T05:21:54;99300.63;;;1.36;100.00
9899;BME280;4988;49.238;6.698;2023-03-16T05:24:21;99301.47;;;1.44;100.00
9899;BME280;4988;49.238;6.698;2023-03-16T05:26:48;99303.19;;;1.44;100.00
9899;BME280;4988;49.238;6.698;2023-03-16T05:29:13;99304.94;;;1.48;100.00
9899;BME280;4988;49.238;6.698;2023-03-16T05:31:38;99309.31;;;1.49;100.00
9899;BME280;4988;49.238;6.698;2023-03-16T05:34:04;99306.66;;;1.52;100.00
9899;BME280;4988;49.238;6.698;2023-03-16T05:36:29;99304.91;;;1.54;100.00
9899;BME280;4988;49.238;6.698;2023-03-16T05:38:54;99304.84;;;1.57;100.00
9899;BME280;4988;49.238;6.698;2023-03-16T05:41:20;99304.84;;;1.60;100.00
9899;BME280;4988;49.238;6.698;2023-03-16T05:43:46;99304.81;;;1.64;100.00
9899;BME280;4988;49.238;6.698;2023-03-16T05:46:11;99300.44;;;1.66;100.00
9899;BME280;4988;49.238;6.698;2023-03-16T05:48:38;99300.44;;;1.66;100.00
9899;BME280;4988;49.238;6.698;2023-03-16T05:51:04;99304.81;;;1.64;100.00
9899;BME280;4988;49.238;6.698;2023-03-16T05:53:31;99310.91;;;1.67;100.00
9899;BME280;4988;49.238;6.698;2023-03-16T05:55:56;99310.00;;;1.73;100.00
9899;BME280;4988;49.238;6.698;2023-03-16T05:58:22;99303.84;;;1.77;100.00
9899;BME280;4988;49.238;6.698;2023-03-16T06:00:47;99299.44;;;1.82;100.00
9899;BME280;4988;49.238;6.698;2023-03-16T06:03:14;99288.00;;;1.91;100.00
9899;BME280;4988;49.238;6.698;2023-03-16T06:05:39;99273.94;;;1.97;100.00
9899;BME280;4988;49.238;6.698;2023-03-16T06:08:05;99275.72;;;1.93;100.00
9899;BME280;4988;49.238;6.698;2023-03-16T06:10:31;99272.19;;;1.96;100.00
9899;BME280;4988;49.238;6.698;2023-03-16T06:12:56;99269.63;;;1.92;100.00
9899;BME280;4988;49.238;6.698;2023-03-16T06:15:21;99269.50;;;2.02;100.00
9899;BME280;4988;49.238;6.698;2023-03-16T06:17:50;99273.03;;;1.99;100.00
9899;BME280;4988;49.238;6.698;2023-03-16T06:20:16;99271.31;;;2.00;100.00
9899;BME280;4988;49.238;6.698;2023-03-16T06:22:42;99272.97;;;2.07;100.00
9899;BME280;4988;49.238;6.698;2023-03-16T06:25:10;99269.44;;;2.11;100.00
9899;BME280;4988;49.238;6.698;2023-03-16T06:27:36;99265.91;;;2.14;100.00
9899;BME280;4988;49.238;6.698;2023-03-16T06:30:02;99268.44;;;2.21;100.00
9899;BME280;4988;49.238;6.698;2023-03-16T06:32:28;99271.97;;;2.22;100.00
9899;BME280;4988;49.238;6.698;2023-03-16T06:34:53;99275.34;;;2.30;100.00
9899;BME280;4988;49.238;6.698;2023-03-16T06:37:18;99284.13;;;2.31;100.00
9899;BME280;4988;49.238;6.698;2023-03-16T06:39:44;99280.53;;;2.39;100.00
9899;BME280;4988;49.238;6.698;2023-03-16T06:42:10;99277.88;;;2.41;100.00
9899;BME280;4988;49.238;6.698;2023-03-16T06:44:35;99270.72;;;2.55;100.00
9899;BME280;4988;49.238;6.698;2023-03-16T06:47:01;99289.09;;;2.57;100.00
9899;BME280;4988;49.238;6.698;2023-03-16T06:49:26;99290.78;;;2.61;100.00
9899;BME280;4988;49.238;6.698;2023-03-16T06:51:52;99289.00;;;2.66;100.00
9899;BME280;4988;49.238;6.698;2023-03-16T06:54:17;99278.41;;;2.71;100.00
9899;BME280;4988;49.238;6.698;2023-03-16T06:56:42;99283.59;;;2.77;100.00
9899;BME280;4988;49.238;6.698;2023-03-16T06:59:08;99288.88;;;2.76;100.00
9899;BME280;4988;49.238;6.698;2023-03-16T07:01:33;99291.47;;;2.80;100.00
9899;BME280;4988;49.238;6.698;2023-03-16T07:03:58;99300.06;;;2.92;100.00
9899;BME280;4988;49.238;6.698;2023-03-16T07:06:24;99307.88;;;2.98;100.00
9899;BME280;4988;49.238;6.698;2023-03-16T07:08:49;99314.81;;;3.05;100.00
9899;BME280;4988;49.238;6.698;2023-03-16T07:11:15;99307.72;;;3.10;100.00
9899;BME280;4988;49.238;6.698;2023-03-16T07:13:41;99300.59;;;3.21;100.00
9899;BME280;4988;49.238;6.698;2023-03-16T07:16:06;99291.78;;;3.24;100.00
9899;BME280;4988;49.238;6.698;2023-03-16T07:18:32;99296.16;;;3.24;99.95
9899;BME280;4988;49.238;6.698;2023-03-16T07:20:58;99294.50;;;3.18;100.00
9899;BME280;4988;49.238;6.698;2023-03-16T07:23:24;99293.56;;;3.22;100.00
9899;BME280;4988;49.238;6.698;2023-03-16T07:25:50;99287.25;;;3.32;100.00
9899;BME280;4988;49.238;6.698;2023-03-16T07:28:17;99287.34;;;3.26;100.00
9899;BME280;4988;49.238;6.698;2023-03-16T07:30:44;99291.69;;;3.29;100.00
9899;BME280;4988;49.238;6.698;2023-03-16T07:33:09;99294.41;;;3.22;100.00
9899;BME280;4988;49.238;6.698;2023-03-16T07:35:34;99305.69;;;3.32;100.00
9899;BME280;4988;49.238;6.698;2023-03-16T07:38:00;99295.94;;;3.37;100.00
9899;BME280;4988;49.238;6.698;2023-03-16T07:40:25;99289.84;;;3.37;100.00
9899;BME280;4988;49.238;6.698;2023-03-16T07:42:50;99291.53;;;3.43;100.00
9899;BME280;4988;49.238;6.698;2023-03-16T07:45:16;99287.00;;;3.51;100.00
9899;BME280;4988;49.238;6.698;2023-03-16T07:47:42;99292.13;;;3.60;100.00
9899;BME280;4988;49.238;6.698;2023-03-16T07:50:09;99292.13;;;3.60;99.56
9899;BME280;4988;49.238;6.698;2023-03-16T07:52:35;99292.94;;;3.64;99.03
9899;BME280;4988;49.238;6.698;2023-03-16T07:55:00;99299.00;;;3.69;99.52
9899;BME280;4988;49.238;6.698;2023-03-16T07:57:26;99295.38;;;3.76;99.00
9899;BME280;4988;49.238;6.698;2023-03-16T07:59:51;99302.13;;;3.93;98.43
9899;BME280;4988;49.238;6.698;2023-03-16T08:02:18;99305.31;;;4.13;96.97
9899;BME280;4988;49.238;6.698;2023-03-16T08:04:44;99295.59;;;4.17;96.49
9899;BME280;4988;49.238;6.698;2023-03-16T08:07:10;99290.97;;;4.30;95.98
9899;BME280;4988;49.238;6.698;2023-03-16T08:09:35;99282.84;;;4.41;94.74
9899;BME280;4988;49.238;6.698;2023-03-16T08:12:04;99281.13;;;4.41;94.48
9899;BME280;4988;49.238;6.698;2023-03-16T08:14:31;99282.63;;;4.55;94.51
9899;BME280;4988;49.238;6.698;2023-03-16T08:16:59;99276.28;;;4.63;94.46
9899;BME280;4988;49.238;6.698;2023-03-16T08:19:26;99274.34;;;4.72;93.41
9899;BME280;4988;49.238;6.698;2023-03-16T08:21:52;99266.53;;;4.69;93.05
9899;BME280;4988;49.238;6.698;2023-03-16T08:24:17;99261.97;;;4.75;93.32
9899;BME280;4988;49.238;6.698;2023-03-16T08:26:42;99257.47;;;4.82;92.61
9899;BME280;4988;49.238;6.698;2023-03-16T08:29:07;99254.59;;;4.93;91.90
9899;BME280;4988;49.238;6.698;2023-03-16T08:31:33;99257.94;;;5.01;91.87
9899;BME280;4988;49.238;6.698;2023-03-16T08:34:00;99264.63;;;5.16;90.42
9899;BME280;4988;49.238;6.698;2023-03-16T08:36:26;99259.88;;;5.32;90.49
9899;BME280;4988;49.238;6.698;2023-03-16T08:38:53;99258.94;;;5.36;89.35
9899;BME280;4988;49.238;6.698;2023-03-16T08:41:19;99267.47;;;5.47;89.02
9899;BME280;4988;49.238;6.698;2023-03-16T08:43:45;99262.84;;;5.57;88.56
9899;BME280;4988;49.238;6.698;2023-03-16T08:46:11;99262.44;;;5.74;87.91
9899;BME280;4988;49.238;6.698;2023-03-16T08:48:38;99260.28;;;5.90;87.16
9899;BME280;4988;49.238;6.698;2023-03-16T08:51:05;99244.16;;;6.03;87.39
9899;BME280;4988;49.238;6.698;2023-03-16T08:53:30;99239.50;;;6.13;86.35
9899;BME280;4988;49.238;6.698;2023-03-16T08:56:03;99240.72;;;6.32;86.70
9899;BME280;4988;49.238;6.698;2023-03-16T08:58:31;99243.66;;;6.53;84.59
9899;BME280;4988;49.238;6.698;2023-03-16T09:00:59;99255.63;;;6.68;82.15
9899;BME280;4988;49.238;6.698;2023-03-16T09:03:24;99250.09;;;6.75;80.53
9899;BME280;4988;49.238;6.698;2023-03-16T09:05:51;99256.72;;;6.90;79.76
9899;BME280;4988;49.238;6.698;2023-03-16T09:08:17;99243.13;;;7.03;77.93
9899;BME280;4988;49.238;6.698;2023-03-16T09:10:42;99240.81;;;7.22;78.12
9899;BME280;4988;49.238;6.698;2023-03-16T09:13:09;99239.41;;;7.38;77.02
9899;BME280;4988;49.238;6.698;2023-03-16T09:15:34;99231.91;;;7.53;75.69
9899;BME280;4988;49.238;6.698;2023-03-16T09:18:00;99237.75;;;7.63;75.74
9899;BME280;4988;49.238;6.698;2023-03-16T09:20:28;99236.38;;;7.78;74.78
9899;BME280;4988;49.238;6.698;2023-03-16T09:22:54;99222.59;;;7.93;73.97
9899;BME280;4988;49.238;6.698;2023-03-16T09:25:21;99217.81;;;8.04;72.02
9899;BME280;4988;49.238;6.698;2023-03-16T09:27:46;99223.34;;;8.24;73.49
9899;BME280;4988;49.238;6.698;2023-03-16T09:30:11;99205.16;;;8.38;70.94
9899;BME280;4988;49.238;6.698;2023-03-16T09:32:37;99202.03;;;8.52;71.58
9899;BME280;4988;49.238;6.698;2023-03-16T09:35:03;99207.22;;;8.55;70.07
9899;BME280;4988;49.238;6.698;2023-03-16T09:37:31;99209.13;;;8.51;68.21
9899;BME280;4988;49.238;6.698;2023-03-16T09:39:56;99209.34;;;8.44;67.93
9899;BME280;4988;49.238;6.698;2023-03-16T09:45:17;99204.41;;;8.34;68.50
9899;BME280;4988;49.238;6.698;2023-03-16T09:47:49;99202.22;;;8.46;69.29
9899;BME280;4988;49.238;6.698;2023-03-16T09:50:21;99202.38;;;8.66;68.29
9899;BME280;4988;49.238;6.698;2023-03-16T09:53:26;99201.00;;;8.80;67.96
9899;BME280;4988;49.238;6.698;2023-03-16T09:59:15;99199.03;;;8.85;65.84
9899;BME280;4988;49.238;6.698;2023-03-16T10:05:21;99183.88;;;9.11;66.23
9899;BME280;4988;49.238;6.698;2023-03-16T10:13:47;99194.50;;;9.11;63.06
9899;BME280;4988;49.238;6.698;2023-03-16T10:16:37;99200.06;;;9.27;64.56
9899;BME280;4988;49.238;6.698;2023-03-16T10:21:59;99184.53;;;9.60;63.25
9899;BME280;4988;49.238;6.698;2023-03-16T10:24:42;99189.50;;;9.70;61.02
9899;BME280;4988;49.238;6.698;2023-03-16T10:27:17;99184.22;;;9.68;61.72
9899;BME280;4988;49.238;6.698;2023-03-16T10:29:44;99183.19;;;9.72;62.02
9899;BME280;4988;49.238;6.698;2023-03-16T10:32:14;99174.28;;;9.73;60.64
9899;BME280;4988;49.238;6.698;2023-03-16T10:34:42;99177.06;;;9.70;59.94
9899;BME280;4988;49.238;6.698;2023-03-16T10:37:12;99176.13;;;9.71;60.68
9899;BME280;4988;49.238;6.698;2023-03-16T10:39:38;99174.06;;;9.78;60.45
9899;BME280;4988;49.238;6.698;2023-03-16T10:42:13;99174.03;;;9.79;58.50
9899;BME280;4988;49.238;6.698;2023-03-16T10:44:39;99168.38;;;9.87;57.52
9899;BME280;4988;49.238;6.698;2023-03-16T10:47:06;99173.97;;;10.02;59.75
9899;BME280;4988;49.238;6.698;2023-03-16T10:49:39;99172.50;;;10.15;60.01
9899;BME280;4988;49.238;6.698;2023-03-16T10:52:19;99169.72;;;10.39;57.78
9899;BME280;4988;49.238;6.698;2023-03-16T10:54:56;99169.44;;;10.45;57.10
9899;BME280;4988;49.238;6.698;2023-03-16T10:57:32;99166.84;;;10.62;58.21
9899;BME280;4988;49.238;6.698;2023-03-16T11:00:16;99166.84;;;10.62;56.75
9899;BME280;4988;49.238;6.698;2023-03-16T11:02:46;99159.69;;;10.65;56.69
9899;BME280;4988;49.238;6.698;2023-03-16T11:08:27;99150.09;;;10.80;57.55
9899;BME280;4988;49.238;6.698;2023-03-16T11:10:54;99156.06;;;10.85;56.61
9899;BME280;4988;49.238;6.698;2023-03-16T11:13:33;99144.63;;;10.83;55.31
9899;BME280;4988;49.238;6.698;2023-03-16T11:16:16;99134.06;;;10.81;55.05
9899;BME280;4988;49.238;6.698;2023-03-16T11:19:02;99137.94;;;10.93;53.21
9899;BME280;4988;49.238;6.698;2023-03-16T11:30:14;99116.66;;;11.30;53.48
9899;BME280;4988;49.238;6.698;2023-03-16T11:32:46;99111.41;;;11.46;51.03
9899;BME280;4988;49.238;6.698;2023-03-16T11:35:16;99113.50;;;11.56;50.45
9899;BME280;4988;49.238;6.698;2023-03-16T11:37:52;99102.78;;;11.58;51.03
9899;BME280;4988;49.238;6.698;2023-03-16T11:40:35;99103.81;;;11.55;49.89
9899;BME280;4988;49.238;6.698;2023-03-16T11:45:59;99104.34;;;11.62;50.55
9899;BME280;4988;49.238;6.698;2023-03-16T11:48:35;99099.97;;;11.61;51.12
9899;BME280;4988;49.238;6.698;2023-03-16T11:51:24;99104.34;;;11.62;51.84
9899;BME280;4988;49.238;6.698;2023-03-16T11:56:33;99100.03;;;11.77;49.60
9899;BME280;4988;49.238;6.698;2023-03-16T11:59:28;99097.44;;;11.75;47.53
9899;BME280;4988;49.238;6.698;2023-03-16T12:02:32;99104.75;;;11.72;48.30
9899;BME280;4988;49.238;6.698;2023-03-16T12:11:06;99092.31;;;11.88;50.07
9899;BME280;4988;49.238;6.698;2023-03-16T12:16:41;99088.81;;;11.88;50.37
9899;BME280;4988;49.238;6.698;2023-03-16T12:19:44;99076.19;;;11.91;48.29
9899;BME280;4988;49.238;6.698;2023-03-16T12:22:19;99064.47;;;11.94;48.74
9899;BME280;4988;49.238;6.698;2023-03-16T12:24:47;99068.00;;;11.95;49.16
9899;BME280;4988;49.238;6.698;2023-03-16T12:27:26;99058.16;;;11.97;48.60
9899;BME280;4988;49.238;6.698;2023-03-16T12:30:19;99042.34;;;11.92;48.63
9899;BME280;4988;49.238;6.698;2023-03-16T12:33:17;99048.09;;;12.02;49.67
9899;BME280;4988;49.238;6.698;2023-03-16T12:35:48;99042.28;;;12.11;50.33
9899;BME280;4988;49.238;6.698;2023-03-16T12:38:30;99032.22;;;12.16;49.37
9899;BME280;4988;49.238;6.698;2023-03-16T12:41:28;99029.00;;;12.26;48.47
9899;BME280;4988;49.238;6.698;2023-03-16T12:44:12;99027.13;;;12.28;48.15
9899;BME280;4988;49.238;6.698;2023-03-16T12:49:26;99010.09;;;12.30;48.97
9899;BME280;4988;49.238;6.698;2023-03-16T12:52:00;99014.03;;;12.39;48.49
9899;BME280;4988;49.238;6.698;2023-03-16T12:54:26;99017.06;;;12.49;46.27
9899;BME280;4988;49.238;6.698;2023-03-16T12:56:59;99015.38;;;12.48;44.63
9899;BME280;4988;49.238;6.698;2023-03-16T12:59:38;99018.19;;;12.45;44.01
9899;BME280;4988;49.238;6.698;2023-03-16T13:02:11;99007.38;;;12.48;43.43
9899;BME280;4988;49.238;6.698;2023-03-16T13:04:40;98998.38;;;12.49;44.05
9899;BME280;4988;49.238;6.698;2023-03-16T13:07:09;98986.25;;;12.43;43.49
9899;BME280;4988;49.238;6.698;2023-03-16T13:09:43;98991.59;;;12.43;44.84
9899;BME280;4988;49.238;6.698;2023-03-16T13:12:33;98983.41;;;12.46;45.95
9899;BME280;4988;49.238;6.698;2023-03-16T13:15:28;98980.72;;;12.46;44.76
9899;BME280;4988;49.238;6.698;2023-03-16T13:20:58;98982.09;;;12.69;45.78
9899;BME280;4988;49.238;6.698;2023-03-16T13:23:55;98973.81;;;12.74;45.30
9899;BME280;4988;49.238;6.698;2023-03-16T13:28:57;98962.19;;;12.75;43.85
9899;BME280;4988;49.238;6.698;2023-03-16T13:33:55;98971.16;;;12.74;43.26
9899;BME280;4988;49.238;6.698;2023-03-16T13:36:25;98972.19;;;12.71;43.94
9899;BME280;4988;49.238;6.698;2023-03-16T13:41:37;98966.41;;;12.79;44.96
9899;BME280;4988;49.238;6.698;2023-03-16T13:44:03;98968.13;;;12.80;44.84
9899;BME280;4988;49.238;6.698;2023-03-16T13:46:29;98964.31;;;12.84;45.16
9899;BME280;4988;49.238;6.698;2023-03-16T13:48:57;98963.88;;;12.92;45.57
9899;BME280;4988;49.238;6.698;2023-03-16T13:51:24;98966.63;;;12.91;44.98
9899;BME280;4988;49.238;6.698;2023-03-16T13:53:50;98973.53;;;12.95;44.18
9899;BME280;4988;49.238;6.698;2023-03-16T13:56:25;98960.22;;;12.93;43.44
9899;BME280;4988;49.238;6.698;2023-03-16T13:58:55;98970.91;;;12.93;45.38
9899;BME280;4988;49.238;6.698;2023-03-16T14:01:25;98947.75;;;12.94;46.05
9899;BME280;4988;49.238;6.698;2023-03-16T14:03:53;98948.22;;;12.86;45.41
9899;BME280;4988;49.238;6.698;2023-03-16T14:06:27;98948.22;;;12.86;45.54
9899;BME280;4988;49.238;6.698;2023-03-16T14:08:58;98952.31;;;12.92;44.67
9899;BME280;4988;49.238;6.698;2023-03-16T14:11:26;98950.22;;;12.97;45.22
9899;BME280;4988;49.238;6.698;2023-03-16T14:13:54;98951.69;;;13.02;43.90
9899;BME280;4988;49.238;6.698;2023-03-16T14:16:22;98949.03;;;13.02;43.69
9899;BME280;4988;49.238;6.698;2023-03-16T14:18:54;98945.81;;;12.96;42.84
9899;BME280;4988;49.238;6.698;2023-03-16T14:21:25;98959.56;;;12.90;42.64
9899;BME280;4988;49.238;6.698;2023-03-16T14:23:59;98948.22;;;12.86;42.69
9899;BME280;4988;49.238;6.698;2023-03-16T14:26:26;98946.50;;;12.85;42.95
9899;BME280;4988;49.238;6.698;2023-03-16T14:28:54;98951.63;;;12.88;43.99
9899;BME280;4988;49.238;6.698;2023-03-16T14:31:31;98951.53;;;12.90;43.47
9899;BME280;4988;49.238;6.698;2023-03-16T14:34:02;98939.06;;;12.90;43.45
9899;BME280;4988;49.238;6.698;2023-03-16T14:36:37;98942.88;;;12.86;43.42
9899;BME280;4988;49.238;6.698;2023-03-16T14:39:14;98938.84;;;12.93;44.04
9899;BME280;4988;49.238;6.698;2023-03-16T14:41:47;98932.19;;;12.86;43.17